Little Turkey, Iowa
Current Conditions -  °F | °C
As of 4:35 PM on Monday 24 Nov 2014 (Local Time) from KDEH Reporting Station
Light Snow Light Snow  
Wind Chill: 10°   Ceiling: 1800
Heat Index: 19°   Visibility: 10mi
Dew Point: 14°   Wind: 7mph
Humidity: 80%   Direction: NA
Pressure: 29.61"   Gusts: 24mph
Location:  43.1036°N, 92.1402°W
Report Text: KDEH 242235Z AUTO VRB06G21KT 10SM -SN OVC018 M07/M10 A2961 RMK AO2
Loading
Personal Weather Stations






























Interactive Weather Map New forecast layout! Learn more

10-Day Weather Forecast

Advertisements
Track Severe Weather on mobile